sensor_id;sensor_type;location;lat;lon;timestamp;P1;durP1;ratioP1;P2;durP2;ratioP2
19923;SDS011;10124;53.068;18.224;2023-02-28T00:01:27;63.83;;;35.30;;
19923;SDS011;10124;53.068;18.224;2023-02-28T00:03:56;63.20;;;34.83;;
19923;SDS011;10124;53.068;18.224;2023-02-28T00:06:24;56.63;;;32.83;;
19923;SDS011;10124;53.068;18.224;2023-02-28T00:08:52;56.57;;;32.77;;
19923;SDS011;10124;53.068;18.224;2023-02-28T00:11:21;58.93;;;34.03;;
19923;SDS011;10124;53.068;18.224;2023-02-28T00:13:49;57.17;;;33.17;;
19923;SDS011;10124;53.068;18.224;2023-02-28T00:16:21;47.63;;;28.60;;
19923;SDS011;10124;53.068;18.224;2023-02-28T00:18:49;43.10;;;26.33;;
19923;SDS011;10124;53.068;18.224;2023-02-28T00:21:18;40.23;;;25.77;;
19923;SDS011;10124;53.068;18.224;2023-02-28T00:23:47;47.33;;;26.13;;
19923;SDS011;10124;53.068;18.224;2023-02-28T00:26:15;48.07;;;25.27;;
19923;SDS011;10124;53.068;18.224;2023-02-28T00:28:46;38.13;;;23.97;;
19923;SDS011;10124;53.068;18.224;2023-02-28T00:31:15;42.90;;;26.33;;
19923;SDS011;10124;53.068;18.224;2023-02-28T00:33:43;38.43;;;24.33;;
19923;SDS011;10124;53.068;18.224;2023-02-28T00:36:14;41.73;;;24.67;;
19923;SDS011;10124;53.068;18.224;2023-02-28T00:38:41;37.40;;;24.23;;
19923;SDS011;10124;53.068;18.224;2023-02-28T00:41:10;39.30;;;24.57;;
19923;SDS011;10124;53.068;18.224;2023-02-28T00:43:38;40.70;;;24.60;;
19923;SDS011;10124;53.068;18.224;2023-02-28T00:46:07;42.13;;;25.57;;
19923;SDS011;10124;53.068;18.224;2023-02-28T00:48:35;48.80;;;26.63;;
19923;SDS011;10124;53.068;18.224;2023-02-28T00:51:06;44.33;;;26.70;;
19923;SDS011;10124;53.068;18.224;2023-02-28T00:53:35;41.07;;;25.40;;
19923;SDS011;10124;53.068;18.224;2023-02-28T00:56:03;41.17;;;24.73;;
19923;SDS011;10124;53.068;18.224;2023-02-28T00:58:31;53.87;;;26.67;;
19923;SDS011;10124;53.068;18.224;2023-02-28T01:01:00;42.73;;;25.33;;
19923;SDS011;10124;53.068;18.224;2023-02-28T01:03:28;46.83;;;27.47;;
19923;SDS011;10124;53.068;18.224;2023-02-28T01:05:57;46.17;;;26.23;;
19923;SDS011;10124;53.068;18.224;2023-02-28T01:08:26;40.77;;;25.37;;
19923;SDS011;10124;53.068;18.224;2023-02-28T01:10:53;44.97;;;27.90;;
19923;SDS011;10124;53.068;18.224;2023-02-28T01:13:21;45.63;;;27.97;;
19923;SDS011;10124;53.068;18.224;2023-02-28T01:15:51;45.07;;;28.10;;
19923;SDS011;10124;53.068;18.224;2023-02-28T01:18:21;45.60;;;27.30;;
19923;SDS011;10124;53.068;18.224;2023-02-28T01:20:50;43.90;;;25.47;;
19923;SDS011;10124;53.068;18.224;2023-02-28T01:23:19;43.53;;;25.77;;
19923;SDS011;10124;53.068;18.224;2023-02-28T01:25:49;47.53;;;28.03;;
19923;SDS011;10124;53.068;18.224;2023-02-28T01:28:17;43.63;;;26.70;;
19923;SDS011;10124;53.068;18.224;2023-02-28T01:30:49;44.90;;;26.67;;
19923;SDS011;10124;53.068;18.224;2023-02-28T01:33:18;43.40;;;27.90;;
19923;SDS011;10124;53.068;18.224;2023-02-28T01:35:46;46.47;;;27.90;;
19923;SDS011;10124;53.068;18.224;2023-02-28T01:38:14;44.17;;;27.77;;
19923;SDS011;10124;53.068;18.224;2023-02-28T01:40:48;44.63;;;26.97;;
19923;SDS011;10124;53.068;18.224;2023-02-28T01:43:21;45.30;;;26.70;;
19923;SDS011;10124;53.068;18.224;2023-02-28T01:45:52;48.63;;;28.00;;
19923;SDS011;10124;53.068;18.224;2023-02-28T01:48:22;49.47;;;26.53;;
19923;SDS011;10124;53.068;18.224;2023-02-28T01:50:59;47.83;;;27.80;;
19923;SDS011;10124;53.068;18.224;2023-02-28T01:53:33;45.03;;;25.73;;
19923;SDS011;10124;53.068;18.224;2023-02-28T01:56:05;46.83;;;28.13;;
19923;SDS011;10124;53.068;18.224;2023-02-28T01:58:35;43.40;;;26.63;;
19923;SDS011;10124;53.068;18.224;2023-02-28T02:01:04;48.27;;;28.53;;
19923;SDS011;10124;53.068;18.224;2023-02-28T02:03:32;48.90;;;27.97;;
19923;SDS011;10124;53.068;18.224;2023-02-28T02:06:02;46.57;;;28.10;;
19923;SDS011;10124;53.068;18.224;2023-02-28T02:08:30;46.70;;;28.77;;
19923;SDS011;10124;53.068;18.224;2023-02-28T02:10:59;45.87;;;29.83;;
19923;SDS011;10124;53.068;18.224;2023-02-28T02:24:40;46.67;;;30.33;;
19923;SDS011;10124;53.068;18.224;2023-02-28T02:35:52;56.53;;;32.33;;
19923;SDS011;10124;53.068;18.224;2023-02-28T02:41:11;70.37;;;38.93;;
19923;SDS011;10124;53.068;18.224;2023-02-28T02:43:53;68.13;;;38.90;;
19923;SDS011;10124;53.068;18.224;2023-02-28T02:49:02;57.80;;;34.50;;
19923;SDS011;10124;53.068;18.224;2023-02-28T02:51:34;59.53;;;33.13;;
19923;SDS011;10124;53.068;18.224;2023-02-28T02:54:13;54.63;;;33.30;;
19923;SDS011;10124;53.068;18.224;2023-02-28T02:56:44;60.33;;;36.07;;
19923;SDS011;10124;53.068;18.224;2023-02-28T02:59:18;63.43;;;36.03;;
19923;SDS011;10124;53.068;18.224;2023-02-28T03:01:50;52.30;;;33.60;;
19923;SDS011;10124;53.068;18.224;2023-02-28T03:04:21;62.00;;;36.10;;
19923;SDS011;10124;53.068;18.224;2023-02-28T03:06:50;55.33;;;34.07;;
19923;SDS011;10124;53.068;18.224;2023-02-28T03:09:22;60.53;;;34.50;;
19923;SDS011;10124;53.068;18.224;2023-02-28T03:11:52;55.37;;;33.60;;
19923;SDS011;10124;53.068;18.224;2023-02-28T03:17:24;61.40;;;35.63;;
19923;SDS011;10124;53.068;18.224;2023-02-28T03:20:14;65.40;;;35.03;;
19923;SDS011;10124;53.068;18.224;2023-02-28T03:23:03;58.17;;;34.77;;
19923;SDS011;10124;53.068;18.224;2023-02-28T03:31:00;60.83;;;35.27;;
19923;SDS011;10124;53.068;18.224;2023-02-28T03:33:43;57.27;;;36.00;;
19923;SDS011;10124;53.068;18.224;2023-02-28T03:36:22;58.37;;;36.43;;
19923;SDS011;10124;53.068;18.224;2023-02-28T03:39:15;58.63;;;35.47;;
19923;SDS011;10124;53.068;18.224;2023-02-28T03:42:21;63.20;;;36.30;;
19923;SDS011;10124;53.068;18.224;2023-02-28T03:45:05;61.13;;;33.87;;
19923;SDS011;10124;53.068;18.224;2023-02-28T03:50:23;66.67;;;35.53;;
19923;SDS011;10124;53.068;18.224;2023-02-28T03:52:57;56.43;;;34.47;;
19923;SDS011;10124;53.068;18.224;2023-02-28T03:55:33;63.37;;;35.90;;
19923;SDS011;10124;53.068;18.224;2023-02-28T03:58:20;60.67;;;34.37;;
19923;SDS011;10124;53.068;18.224;2023-02-28T04:00:50;61.77;;;37.10;;
19923;SDS011;10124;53.068;18.224;2023-02-28T04:03:24;59.43;;;35.97;;
19923;SDS011;10124;53.068;18.224;2023-02-28T04:05:54;66.50;;;36.00;;
19923;SDS011;10124;53.068;18.224;2023-02-28T04:08:24;56.90;;;34.13;;
19923;SDS011;10124;53.068;18.224;2023-02-28T04:11:01;63.23;;;36.17;;
19923;SDS011;10124;53.068;18.224;2023-02-28T04:13:33;65.33;;;37.60;;
19923;SDS011;10124;53.068;18.224;2023-02-28T04:16:01;55.73;;;35.73;;
19923;SDS011;10124;53.068;18.224;2023-02-28T04:18:28;58.23;;;36.20;;
19923;SDS011;10124;53.068;18.224;2023-02-28T04:20:59;62.87;;;34.93;;
19923;SDS011;10124;53.068;18.224;2023-02-28T04:23:27;61.57;;;36.83;;
19923;SDS011;10124;53.068;18.224;2023-02-28T04:25:55;65.60;;;36.73;;
19923;SDS011;10124;53.068;18.224;2023-02-28T04:28:23;65.43;;;35.97;;
19923;SDS011;10124;53.068;18.224;2023-02-28T04:30:54;56.47;;;35.90;;
19923;SDS011;10124;53.068;18.224;2023-02-28T04:33:26;68.70;;;36.07;;
19923;SDS011;10124;53.068;18.224;2023-02-28T04:35:58;64.93;;;37.53;;
19923;SDS011;10124;53.068;18.224;2023-02-28T04:38:28;60.77;;;38.50;;
19923;SDS011;10124;53.068;18.224;2023-02-28T04:40:58;63.33;;;37.90;;
19923;SDS011;10124;53.068;18.224;2023-02-28T04:43:26;71.10;;;38.07;;
19923;SDS011;10124;53.068;18.224;2023-02-28T04:45:55;67.50;;;36.97;;
19923;SDS011;10124;53.068;18.224;2023-02-28T04:48:24;61.13;;;36.30;;
19923;SDS011;10124;53.068;18.224;2023-02-28T04:50:54;56.53;;;36.67;;
19923;SDS011;10124;53.068;18.224;2023-02-28T04:53:21;64.93;;;36.87;;
19923;SDS011;10124;53.068;18.224;2023-02-28T04:55:49;63.93;;;36.97;;
19923;SDS011;10124;53.068;18.224;2023-02-28T04:58:17;66.53;;;38.10;;
19923;SDS011;10124;53.068;18.224;2023-02-28T05:00:44;61.00;;;35.93;;
19923;SDS011;10124;53.068;18.224;2023-02-28T05:03:12;72.20;;;39.33;;
19923;SDS011;10124;53.068;18.224;2023-02-28T05:05:40;65.50;;;38.90;;
19923;SDS011;10124;53.068;18.224;2023-02-28T05:08:07;65.00;;;39.63;;
19923;SDS011;10124;53.068;18.224;2023-02-28T05:10:36;63.53;;;37.10;;
19923;SDS011;10124;53.068;18.224;2023-02-28T05:13:04;70.80;;;38.07;;
19923;SDS011;10124;53.068;18.224;2023-02-28T05:15:31;77.57;;;39.63;;
19923;SDS011;10124;53.068;18.224;2023-02-28T05:18:01;72.33;;;40.50;;
19923;SDS011;10124;53.068;18.224;2023-02-28T05:20:29;67.43;;;40.00;;
19923;SDS011;10124;53.068;18.224;2023-02-28T05:22:57;70.30;;;40.73;;
19923;SDS011;10124;53.068;18.224;2023-02-28T05:25:26;64.17;;;40.90;;
19923;SDS011;10124;53.068;18.224;2023-02-28T05:27:54;68.40;;;41.83;;
19923;SDS011;10124;53.068;18.224;2023-02-28T05:30:21;70.23;;;41.10;;
19923;SDS011;10124;53.068;18.224;2023-02-28T05:32:51;67.27;;;39.20;;
19923;SDS011;10124;53.068;18.224;2023-02-28T05:35:19;74.93;;;41.27;;
19923;SDS011;10124;53.068;18.224;2023-02-28T05:37:47;74.07;;;41.10;;
19923;SDS011;10124;53.068;18.224;2023-02-28T05:40:15;65.07;;;38.93;;
19923;SDS011;10124;53.068;18.224;2023-02-28T05:42:43;63.27;;;38.37;;
19923;SDS011;10124;53.068;18.224;2023-02-28T05:45:11;66.40;;;39.27;;
19923;SDS011;10124;53.068;18.224;2023-02-28T05:47:41;63.53;;;38.53;;
19923;SDS011;10124;53.068;18.224;2023-02-28T05:50:09;69.70;;;40.00;;
19923;SDS011;10124;53.068;18.224;2023-02-28T05:52:37;70.97;;;40.17;;
19923;SDS011;10124;53.068;18.224;2023-02-28T05:55:05;66.50;;;39.87;;
19923;SDS011;10124;53.068;18.224;2023-02-28T05:57:33;64.80;;;36.83;;
19923;SDS011;10124;53.068;18.224;2023-02-28T06:00:01;68.17;;;39.07;;
19923;SDS011;10124;53.068;18.224;2023-02-28T06:02:38;68.37;;;40.17;;
19923;SDS011;10124;53.068;18.224;2023-02-28T06:05:10;70.60;;;38.70;;
19923;SDS011;10124;53.068;18.224;2023-02-28T06:07:44;69.57;;;41.03;;
19923;SDS011;10124;53.068;18.224;2023-02-28T06:10:12;68.80;;;40.67;;
19923;SDS011;10124;53.068;18.224;2023-02-28T06:12:41;76.47;;;42.47;;
19923;SDS011;10124;53.068;18.224;2023-02-28T06:15:13;70.27;;;41.33;;
19923;SDS011;10124;53.068;18.224;2023-02-28T06:17:41;76.40;;;41.07;;
19923;SDS011;10124;53.068;18.224;2023-02-28T06:20:11;66.43;;;38.70;;
19923;SDS011;10124;53.068;18.224;2023-02-28T06:22:43;72.23;;;40.53;;
19923;SDS011;10124;53.068;18.224;2023-02-28T06:25:11;75.83;;;41.60;;
19923;SDS011;10124;53.068;18.224;2023-02-28T06:27:39;74.73;;;42.20;;
19923;SDS011;10124;53.068;18.224;2023-02-28T06:30:06;79.77;;;42.80;;
19923;SDS011;10124;53.068;18.224;2023-02-28T06:32:35;66.33;;;41.27;;
19923;SDS011;10124;53.068;18.224;2023-02-28T06:35:02;67.47;;;39.10;;
19923;SDS011;10124;53.068;18.224;2023-02-28T06:37:31;72.23;;;39.40;;
19923;SDS011;10124;53.068;18.224;2023-02-28T06:39:59;75.50;;;40.10;;
19923;SDS011;10124;53.068;18.224;2023-02-28T06:42:27;65.97;;;39.77;;
19923;SDS011;10124;53.068;18.224;2023-02-28T06:44:55;71.93;;;39.50;;
19923;SDS011;10124;53.068;18.224;2023-02-28T06:47:23;74.43;;;37.93;;
19923;SDS011;10124;53.068;18.224;2023-02-28T06:49:50;67.80;;;39.47;;
19923;SDS011;10124;53.068;18.224;2023-02-28T06:52:18;65.47;;;38.43;;
19923;SDS011;10124;53.068;18.224;2023-02-28T06:54:45;65.67;;;40.10;;
19923;SDS011;10124;53.068;18.224;2023-02-28T06:57:13;67.40;;;40.20;;
19923;SDS011;10124;53.068;18.224;2023-02-28T06:59:40;72.70;;;41.17;;
19923;SDS011;10124;53.068;18.224;2023-02-28T07:02:08;76.83;;;43.27;;
19923;SDS011;10124;53.068;18.224;2023-02-28T07:04:35;71.30;;;41.23;;
19923;SDS011;10124;53.068;18.224;2023-02-28T07:07:03;80.03;;;44.63;;
19923;SDS011;10124;53.068;18.224;2023-02-28T07:09:30;69.17;;;43.87;;
19923;SDS011;10124;53.068;18.224;2023-02-28T07:11:58;78.60;;;47.47;;
19923;SDS011;10124;53.068;18.224;2023-02-28T07:14:28;116.87;;;63.73;;
19923;SDS011;10124;53.068;18.224;2023-02-28T07:16:55;199.20;;;102.57;;
19923;SDS011;10124;53.068;18.224;2023-02-28T07:19:22;239.40;;;121.57;;
19923;SDS011;10124;53.068;18.224;2023-02-28T07:21:50;253.00;;;127.70;;
19923;SDS011;10124;53.068;18.224;2023-02-28T07:24:17;276.50;;;143.87;;
19923;SDS011;10124;53.068;18.224;2023-02-28T07:26:45;266.83;;;134.97;;
19923;SDS011;10124;53.068;18.224;2023-02-28T07:29:12;222.50;;;117.57;;
19923;SDS011;10124;53.068;18.224;2023-02-28T07:31:40;177.07;;;102.40;;
19923;SDS011;10124;53.068;18.224;2023-02-28T07:34:07;174.43;;;96.97;;
19923;SDS011;10124;53.068;18.224;2023-02-28T07:36:35;171.53;;;90.33;;
19923;SDS011;10124;53.068;18.224;2023-02-28T07:39:02;176.57;;;97.23;;
19923;SDS011;10124;53.068;18.224;2023-02-28T07:41:31;191.70;;;103.87;;
19923;SDS011;10124;53.068;18.224;2023-02-28T07:44:00;170.13;;;97.47;;
19923;SDS011;10124;53.068;18.224;2023-02-28T07:46:28;145.90;;;84.90;;
19923;SDS011;10124;53.068;18.224;2023-02-28T07:49:02;128.93;;;76.83;;
19923;SDS011;10124;53.068;18.224;2023-02-28T07:51:30;130.27;;;74.03;;
19923;SDS011;10124;53.068;18.224;2023-02-28T07:53:57;128.33;;;75.80;;
19923;SDS011;10124;53.068;18.224;2023-02-28T07:56:25;119.67;;;70.23;;
19923;SDS011;10124;53.068;18.224;2023-02-28T07:58:52;119.07;;;72.07;;
19923;SDS011;10124;53.068;18.224;2023-02-28T08:01:20;125.67;;;75.40;;
19923;SDS011;10124;53.068;18.224;2023-02-28T08:03:48;133.13;;;76.03;;
19923;SDS011;10124;53.068;18.224;2023-02-28T08:06:17;128.13;;;73.00;;
19923;SDS011;10124;53.068;18.224;2023-02-28T08:08:46;115.27;;;69.70;;
19923;SDS011;10124;53.068;18.224;2023-02-28T08:11:15;106.23;;;64.60;;
19923;SDS011;10124;53.068;18.224;2023-02-28T08:13:44;115.67;;;65.67;;
19923;SDS011;10124;53.068;18.224;2023-02-28T08:16:12;107.13;;;59.70;;
19923;SDS011;10124;53.068;18.224;2023-02-28T08:18:50;93.27;;;55.80;;
19923;SDS011;10124;53.068;18.224;2023-02-28T08:21:18;101.03;;;58.83;;
19923;SDS011;10124;53.068;18.224;2023-02-28T08:23:47;94.07;;;57.47;;
19923;SDS011;10124;53.068;18.224;2023-02-28T08:26:16;84.37;;;51.27;;
19923;SDS011;10124;53.068;18.224;2023-02-28T08:28:47;92.30;;;51.97;;
19923;SDS011;10124;53.068;18.224;2023-02-28T08:31:15;86.77;;;51.50;;
19923;SDS011;10124;53.068;18.224;2023-02-28T08:33:43;82.90;;;48.60;;
19923;SDS011;10124;53.068;18.224;2023-02-28T08:36:11;81.20;;;47.70;;
19923;SDS011;10124;53.068;18.224;2023-02-28T08:38:39;75.10;;;45.80;;
19923;SDS011;10124;53.068;18.224;2023-02-28T08:41:07;84.13;;;46.47;;
19923;SDS011;10124;53.068;18.224;2023-02-28T08:43:37;73.10;;;43.47;;
19923;SDS011;10124;53.068;18.224;2023-02-28T08:46:05;75.83;;;42.63;;
19923;SDS011;10124;53.068;18.224;2023-02-28T08:48:34;78.77;;;42.37;;
19923;SDS011;10124;53.068;18.224;2023-02-28T08:53:38;82.83;;;46.73;;
19923;SDS011;10124;53.068;18.224;2023-02-28T08:56:07;73.10;;;41.37;;
19923;SDS011;10124;53.068;18.224;2023-02-28T08:58:39;67.93;;;37.03;;
19923;SDS011;10124;53.068;18.224;2023-02-28T09:01:11;64.40;;;33.17;;
19923;SDS011;10124;53.068;18.224;2023-02-28T09:03:40;57.92;;;32.33;;
19923;SDS011;10124;53.068;18.224;2023-02-28T09:06:09;62.17;;;32.38;;
19923;SDS011;10124;53.068;18.224;2023-02-28T09:08:38;48.38;;;30.25;;
19923;SDS011;10124;53.068;18.224;2023-02-28T09:11:07;52.50;;;29.17;;
19923;SDS011;10124;53.068;18.224;2023-02-28T09:13:36;52.35;;;29.42;;
19923;SDS011;10124;53.068;18.224;2023-02-28T09:16:04;48.13;;;29.67;;
19923;SDS011;10124;53.068;18.224;2023-02-28T09:18:34;26.58;;;16.35;;
19923;SDS011;10124;53.068;18.224;2023-02-28T09:21:04;23.63;;;13.63;;
19923;SDS011;10124;53.068;18.224;2023-02-28T09:23:33;20.83;;;12.55;;
19923;SDS011;10124;53.068;18.224;2023-02-28T09:26:01;25.52;;;14.45;;
19923;SDS011;10124;53.068;18.224;2023-02-28T09:28:29;23.92;;;12.90;;
19923;SDS011;10124;53.068;18.224;2023-02-28T09:30:56;22.00;;;12.13;;
19923;SDS011;10124;53.068;18.224;2023-02-28T09:33:25;22.08;;;14.30;;
19923;SDS011;10124;53.068;18.224;2023-02-28T09:35:57;23.45;;;12.43;;
19923;SDS011;10124;53.068;18.224;2023-02-28T09:38:27;20.73;;;11.63;;
19923;SDS011;10124;53.068;18.224;2023-02-28T09:40:57;24.90;;;12.05;;
19923;SDS011;10124;53.068;18.224;2023-02-28T09:43:33;20.30;;;11.77;;
19923;SDS011;10124;53.068;18.224;2023-02-28T09:48:44;26.17;;;13.82;;
19923;SDS011;10124;53.068;18.224;2023-02-28T09:51:28;20.65;;;12.38;;
19923;SDS011;10124;53.068;18.224;2023-02-28T10:07:47;11.18;;;6.93;;
19923;SDS011;10124;53.068;18.224;2023-02-28T10:10:27;9.85;;;6.55;;
19923;SDS011;10124;53.068;18.224;2023-02-28T10:13:24;10.38;;;7.00;;
19923;SDS011;10124;53.068;18.224;2023-02-28T10:16:03;13.45;;;7.75;;
19923;SDS011;10124;53.068;18.224;2023-02-28T10:18:49;12.25;;;7.20;;
19923;SDS011;10124;53.068;18.224;2023-02-28T10:21:35;8.07;;;4.50;;
19923;SDS011;10124;53.068;18.224;2023-02-28T10:26:44;13.20;;;7.68;;
19923;SDS011;10124;53.068;18.224;2023-02-28T10:29:12;14.10;;;7.20;;
19923;SDS011;10124;53.068;18.224;2023-02-28T10:31:41;16.95;;;8.70;;
19923;SDS011;10124;53.068;18.224;2023-02-28T10:34:10;17.83;;;8.80;;
19923;SDS011;10124;53.068;18.224;2023-02-28T10:36:40;16.00;;;9.17;;
19923;SDS011;10124;53.068;18.224;2023-02-28T10:42:27;14.85;;;8.85;;
19923;SDS011;10124;53.068;18.224;2023-02-28T10:45:04;15.75;;;8.38;;
19923;SDS011;10124;53.068;18.224;2023-02-28T10:53:23;25.17;;;11.38;;
19923;SDS011;10124;53.068;18.224;2023-02-28T10:58:46;17.88;;;9.60;;
19923;SDS011;10124;53.068;18.224;2023-02-28T11:01:21;12.13;;;6.05;;
19923;SDS011;10124;53.068;18.224;2023-02-28T11:03:52;11.52;;;6.50;;
19923;SDS011;10124;53.068;18.224;2023-02-28T11:08:55;13.43;;;8.13;;
19923;SDS011;10124;53.068;18.224;2023-02-28T11:11:27;15.80;;;8.93;;
19923;SDS011;10124;53.068;18.224;2023-02-28T11:14:05;12.02;;;6.93;;
19923;SDS011;10124;53.068;18.224;2023-02-28T11:16:43;12.75;;;7.68;;
19923;SDS011;10124;53.068;18.224;2023-02-28T11:19:22;9.77;;;5.65;;
19923;SDS011;10124;53.068;18.224;2023-02-28T11:21:57;15.57;;;8.77;;
19923;SDS011;10124;53.068;18.224;2023-02-28T11:24:30;12.38;;;6.95;;
19923;SDS011;10124;53.068;18.224;2023-02-28T11:26:59;12.93;;;8.07;;
19923;SDS011;10124;53.068;18.224;2023-02-28T11:29:28;13.57;;;7.22;;
19923;SDS011;10124;53.068;18.224;2023-02-28T11:34:32;13.30;;;6.35;;
19923;SDS011;10124;53.068;18.224;2023-02-28T11:37:01;11.38;;;6.63;;
19923;SDS011;10124;53.068;18.224;2023-02-28T11:39:32;16.08;;;8.77;;
19923;SDS011;10124;53.068;18.224;2023-02-28T11:44:38;12.10;;;7.30;;
19923;SDS011;10124;53.068;18.224;2023-02-28T11:50:42;13.18;;;8.93;;
19923;SDS011;10124;53.068;18.224;2023-02-28T11:53:19;14.90;;;8.20;;
19923;SDS011;10124;53.068;18.224;2023-02-28T11:56:03;11.23;;;6.78;;
19923;SDS011;10124;53.068;18.224;2023-02-28T12:01:19;12.00;;;6.45;;
19923;SDS011;10124;53.068;18.224;2023-02-28T12:04:10;12.25;;;6.80;;
19923;SDS011;10124;53.068;18.224;2023-02-28T12:23:21;9.35;;;6.28;;
19923;SDS011;10124;53.068;18.224;2023-02-28T12:28:43;12.45;;;6.65;;
19923;SDS011;10124;53.068;18.224;2023-02-28T12:31:22;11.02;;;7.15;;
19923;SDS011;10124;53.068;18.224;2023-02-28T12:34:03;16.38;;;8.23;;
19923;SDS011;10124;53.068;18.224;2023-02-28T12:36:52;14.32;;;9.00;;
19923;SDS011;10124;53.068;18.224;2023-02-28T12:39:25;17.33;;;9.45;;
19923;SDS011;10124;53.068;18.224;2023-02-28T12:42:05;14.07;;;7.70;;
19923;SDS011;10124;53.068;18.224;2023-02-28T12:44:44;10.00;;;5.72;;
19923;SDS011;10124;53.068;18.224;2023-02-28T12:47:17;11.77;;;7.50;;
19923;SDS011;10124;53.068;18.224;2023-02-28T12:49:47;15.23;;;7.05;;
19923;SDS011;10124;53.068;18.224;2023-02-28T12:52:21;10.90;;;6.80;;
19923;SDS011;10124;53.068;18.224;2023-02-28T12:55:13;9.63;;;6.43;;
19923;SDS011;10124;53.068;18.224;2023-02-28T13:00:19;11.45;;;6.10;;
19923;SDS011;10124;53.068;18.224;2023-02-28T13:11:31;16.70;;;7.50;;
19923;SDS011;10124;53.068;18.224;2023-02-28T13:14:06;14.48;;;7.47;;
19923;SDS011;10124;53.068;18.224;2023-02-28T13:19:44;12.18;;;6.90;;
19923;SDS011;10124;53.068;18.224;2023-02-28T13:24:54;13.52;;;7.90;;
19923;SDS011;10124;53.068;18.224;2023-02-28T13:27:34;11.05;;;7.13;;
19923;SDS011;10124;53.068;18.224;2023-02-28T13:33:29;14.48;;;6.80;;
19923;SDS011;10124;53.068;18.224;2023-02-28T13:44:12;11.00;;;7.13;;
19923;SDS011;10124;53.068;18.224;2023-02-28T13:49:23;21.30;;;11.35;;
19923;SDS011;10124;53.068;18.224;2023-02-28T14:03:46;15.15;;;8.63;;
19923;SDS011;10124;53.068;18.224;2023-02-28T14:08:52;15.80;;;7.97;;
19923;SDS011;10124;53.068;18.224;2023-02-28T14:11:32;16.13;;;9.88;;
19923;SDS011;10124;53.068;18.224;2023-02-28T14:14:06;12.23;;;7.90;;
19923;SDS011;10124;53.068;18.224;2023-02-28T14:16:46;18.65;;;9.52;;
19923;SDS011;10124;53.068;18.224;2023-02-28T14:19:22;13.15;;;9.45;;
19923;SDS011;10124;53.068;18.224;2023-02-28T14:38:32;17.15;;;11.13;;
19923;SDS011;10124;53.068;18.224;2023-02-28T14:41:14;17.27;;;9.52;;
19923;SDS011;10124;53.068;18.224;2023-02-28T14:43:53;15.57;;;8.77;;
19923;SDS011;10124;53.068;18.224;2023-02-28T14:46:23;16.40;;;9.23;;
19923;SDS011;10124;53.068;18.224;2023-02-28T14:48:55;17.63;;;10.05;;
19923;SDS011;10124;53.068;18.224;2023-02-28T14:51:24;21.25;;;11.15;;
19923;SDS011;10124;53.068;18.224;2023-02-28T14:53:56;23.48;;;12.20;;
19923;SDS011;10124;53.068;18.224;2023-02-28T14:56:27;52.85;;;24.63;;
19923;SDS011;10124;53.068;18.224;2023-02-28T14:59:05;24.90;;;11.90;;
19923;SDS011;10124;53.068;18.224;2023-02-28T15:01:52;30.52;;;14.10;;
19923;SDS011;10124;53.068;18.224;2023-02-28T15:04:43;19.67;;;10.65;;
19923;SDS011;10124;53.068;18.224;2023-02-28T15:07:27;22.30;;;11.70;;
19923;SDS011;10124;53.068;18.224;2023-02-28T15:10:10;32.72;;;17.15;;
19923;SDS011;10124;53.068;18.224;2023-02-28T15:12:39;40.17;;;20.58;;
19923;SDS011;10124;53.068;18.224;2023-02-28T15:15:15;63.90;;;34.78;;
19923;SDS011;10124;53.068;18.224;2023-02-28T15:17:45;50.43;;;30.63;;
19923;SDS011;10124;53.068;18.224;2023-02-28T15:20:19;46.87;;;30.07;;
19923;SDS011;10124;53.068;18.224;2023-02-28T15:22:49;58.87;;;34.67;;
19923;SDS011;10124;53.068;18.224;2023-02-28T15:25:20;46.90;;;27.73;;
19923;SDS011;10124;53.068;18.224;2023-02-28T15:27:50;43.23;;;24.77;;
19923;SDS011;10124;53.068;18.224;2023-02-28T15:30:26;41.80;;;26.87;;
19923;SDS011;10124;53.068;18.224;2023-02-28T15:33:47;42.73;;;25.27;;
19923;SDS011;10124;53.068;18.224;2023-02-28T15:36:03;61.37;;;32.93;;
19923;SDS011;10124;53.068;18.224;2023-02-28T15:38:43;53.00;;;31.97;;
19923;SDS011;10124;53.068;18.224;2023-02-28T15:41:21;68.47;;;35.87;;
19923;SDS011;10124;53.068;18.224;2023-02-28T15:46:54;69.37;;;38.47;;
19923;SDS011;10124;53.068;18.224;2023-02-28T15:49:29;61.53;;;30.57;;
19923;SDS011;10124;53.068;18.224;2023-02-28T15:52:41;45.33;;;23.00;;
19923;SDS011;10124;53.068;18.224;2023-02-28T15:55:19;41.13;;;20.47;;
19923;SDS011;10124;53.068;18.224;2023-02-28T15:57:51;46.00;;;27.23;;
19923;SDS011;10124;53.068;18.224;2023-02-28T16:00:31;52.80;;;30.97;;
19923;SDS011;10124;53.068;18.224;2023-02-28T16:03:01;60.83;;;36.20;;
19923;SDS011;10124;53.068;18.224;2023-02-28T16:08:44;82.10;;;41.53;;
19923;SDS011;10124;53.068;18.224;2023-02-28T16:11:12;86.00;;;43.10;;
19923;SDS011;10124;53.068;18.224;2023-02-28T16:13:40;85.43;;;44.20;;
19923;SDS011;10124;53.068;18.224;2023-02-28T16:16:14;90.50;;;45.57;;
19923;SDS011;10124;53.068;18.224;2023-02-28T16:18:47;109.87;;;52.20;;
19923;SDS011;10124;53.068;18.224;2023-02-28T16:21:15;119.20;;;57.57;;
19923;SDS011;10124;53.068;18.224;2023-02-28T16:23:43;149.37;;;69.47;;
19923;SDS011;10124;53.068;18.224;2023-02-28T16:26:22;93.80;;;49.07;;
19923;SDS011;10124;53.068;18.224;2023-02-28T16:28:54;107.07;;;49.87;;
19923;SDS011;10124;53.068;18.224;2023-02-28T16:31:23;145.80;;;62.00;;
19923;SDS011;10124;53.068;18.224;2023-02-28T16:33:53;92.47;;;42.43;;
19923;SDS011;10124;53.068;18.224;2023-02-28T16:36:24;77.73;;;37.80;;
19923;SDS011;10124;53.068;18.224;2023-02-28T16:38:53;70.70;;;33.20;;
19923;SDS011;10124;53.068;18.224;2023-02-28T16:41:23;208.33;;;73.10;;
19923;SDS011;10124;53.068;18.224;2023-02-28T16:43:54;170.60;;;63.37;;
19923;SDS011;10124;53.068;18.224;2023-02-28T16:46:27;115.17;;;51.90;;
19923;SDS011;10124;53.068;18.224;2023-02-28T16:49:00;203.47;;;80.53;;
19923;SDS011;10124;53.068;18.224;2023-02-28T16:51:28;107.87;;;44.10;;
19923;SDS011;10124;53.068;18.224;2023-02-28T16:54:00;85.80;;;39.60;;
19923;SDS011;10124;53.068;18.224;2023-02-28T16:56:29;73.43;;;31.53;;
19923;SDS011;10124;53.068;18.224;2023-02-28T16:58:59;75.10;;;30.67;;
19923;SDS011;10124;53.068;18.224;2023-02-28T17:01:28;56.83;;;25.23;;
19923;SDS011;10124;53.068;18.224;2023-02-28T17:03:57;26.23;;;13.77;;
19923;SDS011;10124;53.068;18.224;2023-02-28T17:06:26;20.90;;;12.23;;
19923;SDS011;10124;53.068;18.224;2023-02-28T17:08:57;21.53;;;12.30;;
19923;SDS011;10124;53.068;18.224;2023-02-28T17:11:26;32.53;;;18.70;;
19923;SDS011;10124;53.068;18.224;2023-02-28T17:13:55;29.93;;;17.37;;
19923;SDS011;10124;53.068;18.224;2023-02-28T17:16:30;21.70;;;13.60;;
19923;SDS011;10124;53.068;18.224;2023-02-28T17:19:02;36.10;;;17.83;;
19923;SDS011;10124;53.068;18.224;2023-02-28T17:21:32;37.83;;;19.70;;
19923;SDS011;10124;53.068;18.224;2023-02-28T17:24:02;36.70;;;20.67;;
19923;SDS011;10124;53.068;18.224;2023-02-28T17:26:30;29.80;;;16.67;;